Kidlington, United Kingdom
Current Conditions -  °F | °C
As of 8:20 PM on Wednesday 28 Jan 2015 (Local Time) from EGTK Reporting Station
Clear Clear  
Wind Chill: 27°   Ceiling: Unl
Heat Index: 36°   Visibility: 6mi
Dew Point: 30°   Wind: 14mph
Humidity: 81%   Direction: 240°WSW
Pressure: 29.56"   Gusts: NA
Location:  51.82°N, 1.29°W
Report Text: EGTK 282020Z 24012KT CAVOK 02/M01 Q1001
Loading
Personal Weather Stations






























Interactive Weather Map New forecast layout! Learn more

10-Day Weather Forecast

Advertisements
Track Severe Weather on mobile